Terminal Aerodrome Forecast
Issued by NWS

Home | Current Version | Previous Version | Graphics & Text | Print | Product List | Glossary On
Versions: 1 2 3 4 5 6 7 8 9 10 11 12 13 14 15 16 17
000
FTUS43 KTOP 221700
TAFFOE
TAF
KFOE 221720Z 2218/2318 24007KT P6SM SCT150
     FM222300 VRB10KT P6SM VCTS BKN080CB BKN150
     FM230200 02007KT P6SM SCT100=

USA.gov is the U.S. government's official web portal to all federal, state and local government web resources and services.